createdAt,value
2022-09-25T00:04:00.084Z,78.38
2022-09-25T00:09:24.452Z,77.91
2022-09-25T00:14:46.605Z,77.69
2022-09-25T00:20:10.068Z,77.83
2022-09-25T00:25:33.605Z,78.23
2022-09-25T00:30:57.373Z,78.22
2022-09-25T00:36:22.848Z,78.39
2022-09-25T00:41:45.863Z,78.65
2022-09-25T00:47:08.079Z,78.99
2022-09-25T00:52:32.033Z,78.96
2022-09-25T00:57:58.389Z,78.77
2022-09-25T01:03:21.387Z,78.61
2022-09-25T01:08:45.763Z,78.50
2022-09-25T01:14:10.994Z,78.31
2022-09-25T01:19:58.797Z,78.39
2022-09-25T01:25:42.986Z,78.42
2022-09-25T01:31:12.846Z,78.75
2022-09-25T01:36:45.602Z,79.10
2022-09-25T01:42:22.614Z,79.60
2022-09-25T01:47:49.537Z,80.18
2022-09-25T01:53:16.135Z,80.66
2022-09-25T01:58:48.495Z,81.70
2022-09-25T02:04:33.540Z,82.21
2022-09-25T02:10:00.175Z,82.50
2022-09-25T02:15:27.308Z,82.91
2022-09-25T02:20:56.623Z,83.31
2022-09-25T02:26:23.654Z,84.20
2022-09-25T02:32:05.031Z,85.48
2022-09-25T02:37:31.908Z,86.88
2022-09-25T02:43:13.888Z,88.43
2022-09-25T02:48:58.396Z,89.77
2022-09-25T02:54:39.747Z,90.70
2022-09-25T03:00:10.744Z,91.48
2022-09-25T03:05:36.287Z,92.58
2022-09-25T03:10:59.621Z,93.97
2022-09-25T03:16:30.765Z,95.18
2022-09-25T03:21:54.433Z,95.86
2022-09-25T03:27:16.601Z,97.09
2022-09-25T03:32:39.424Z,98.41
2022-09-25T03:38:01.580Z,99.29
2022-09-25T03:43:24.353Z,100.00
2022-09-25T03:48:47.240Z,100.00
2022-09-25T03:54:09.967Z,100.00
2022-09-25T03:59:32.167Z,100.00
2022-09-25T04:04:55.525Z,100.00
2022-09-25T04:10:17.843Z,100.00
2022-09-25T04:15:43.302Z,100.00
2022-09-25T04:21:05.917Z,100.00
2022-09-25T04:26:28.745Z,100.00
2022-09-25T04:31:52.984Z,100.00
2022-09-25T04:37:16.114Z,100.00
2022-09-25T04:42:38.572Z,100.00
2022-09-25T04:48:01.283Z,100.00
2022-09-25T04:53:24.129Z,100.00
2022-09-25T04:58:49.222Z,100.00
2022-09-25T05:04:12.031Z,100.00
2022-09-25T05:09:35.259Z,100.00
2022-09-25T05:14:57.398Z,100.00
2022-09-25T05:20:20.169Z,100.00
2022-09-25T05:25:44.058Z,100.00
2022-09-25T05:31:07.924Z,100.00
2022-09-25T05:36:31.225Z,100.00
2022-09-25T05:41:53.401Z,100.00
2022-09-25T05:47:16.182Z,100.00
2022-09-25T05:52:38.738Z,100.00
2022-09-25T05:58:00.883Z,100.00
2022-09-25T06:03:23.604Z,100.00
2022-09-25T06:08:46.711Z,100.00
2022-09-25T06:14:08.888Z,100.00
2022-09-25T06:19:31.413Z,100.00
2022-09-25T06:24:53.665Z,100.00
2022-09-25T06:30:16.285Z,98.94
2022-09-25T06:35:39.279Z,96.44
2022-09-25T06:41:01.999Z,93.55
2022-09-25T06:46:24.782Z,90.89
2022-09-25T06:51:48.218Z,89.44
2022-09-25T06:57:11.563Z,88.22
2022-09-25T07:02:51.561Z,86.51
2022-09-25T07:08:14.891Z,85.47
2022-09-25T07:13:41.181Z,84.68
2022-09-25T07:19:06.183Z,83.83
2022-09-25T07:24:29.971Z,82.19
2022-09-25T07:29:52.177Z,81.21
2022-09-25T07:35:14.800Z,80.00
2022-09-25T07:40:38.369Z,78.60
2022-09-25T07:46:15.845Z,77.56
2022-09-25T07:51:39.049Z,76.21
2022-09-25T07:57:01.759Z,76.11
2022-09-25T08:02:23.994Z,74.29
2022-09-25T08:07:49.529Z,73.31
2022-09-25T08:13:12.111Z,73.66
2022-09-25T08:18:34.343Z,73.56
2022-09-25T08:23:58.246Z,72.77
2022-09-25T08:29:20.420Z,71.12
2022-09-25T08:34:43.219Z,70.31
2022-09-25T08:40:09.728Z,69.43
2022-09-25T08:46:04.954Z,69.12
2022-09-25T08:51:27.853Z,68.48
2022-09-25T08:56:51.394Z,67.93
2022-09-25T09:02:30.724Z,68.29
2022-09-25T09:08:10.449Z,68.20
2022-09-25T09:14:05.064Z,67.68
2022-09-25T09:19:28.952Z,66.91
2022-09-25T09:24:56.390Z,66.47
2022-09-25T09:30:52.317Z,66.46
2022-09-25T09:36:51.350Z,66.11
2022-09-25T09:42:33.464Z,62.72
2022-09-25T09:48:12.440Z,61.22
2022-09-25T09:53:57.299Z,59.09
2022-09-25T09:59:33.601Z,56.15
2022-09-25T10:04:58.458Z,54.12
2022-09-25T10:10:26.306Z,52.53
2022-09-25T10:16:05.383Z,51.36
2022-09-25T10:21:41.469Z,52.39
2022-09-25T10:27:03.727Z,54.38
2022-09-25T10:32:28.130Z,54.19
2022-09-25T10:37:52.661Z,54.59
2022-09-25T10:43:27.724Z,55.05
2022-09-25T10:49:10.382Z,53.99
2022-09-25T10:54:36.850Z,54.47
2022-09-25T11:00:00.974Z,55.43
2022-09-25T11:05:30.298Z,54.57
2022-09-25T11:11:06.103Z,54.40
2022-09-25T11:16:30.104Z,53.17
2022-09-25T11:21:58.901Z,53.52
2022-09-25T11:27:35.005Z,54.58
2022-09-25T11:33:32.927Z,53.65
2022-09-25T11:39:30.021Z,54.38
2022-09-25T11:45:23.811Z,54.45
2022-09-25T11:50:54.277Z,54.09
2022-09-25T11:56:40.689Z,53.41
2022-09-25T12:02:36.734Z,50.14
2022-09-25T12:08:20.293Z,47.72
2022-09-25T12:14:18.793Z,43.18
2022-09-25T12:19:52.475Z,44.77
2022-09-25T12:25:56.459Z,44.86
2022-09-25T12:31:43.785Z,43.74
2022-09-25T12:37:18.615Z,42.47
2022-09-25T12:42:55.104Z,38.84
2022-09-25T12:48:51.004Z,37.91
2022-09-25T12:54:30.277Z,40.80
2022-09-25T13:00:03.673Z,42.18
2022-09-25T13:05:44.792Z,43.82
2022-09-25T13:11:12.212Z,45.50
2022-09-25T13:16:35.758Z,48.55
2022-09-25T13:22:11.491Z,48.95
2022-09-25T13:27:38.750Z,49.55
2022-09-25T13:33:05.249Z,49.33
2022-09-25T13:38:50.321Z,43.70
2022-09-25T13:50:27.800Z,41.76
2022-09-25T13:55:58.510Z,45.15
2022-09-25T14:01:25.332Z,47.18
2022-09-25T14:06:57.310Z,48.07
2022-09-25T14:12:41.584Z,51.95
2022-09-25T14:18:06.574Z,52.05
2022-09-25T14:23:35.798Z,52.90
2022-09-25T14:29:06.628Z,54.20
2022-09-25T14:34:55.981Z,54.06
2022-09-25T14:40:31.074Z,55.39
2022-09-25T14:46:21.422Z,56.76
2022-09-25T14:51:50.671Z,54.15
2022-09-25T14:57:16.353Z,49.11
2022-09-25T15:02:45.646Z,46.93
2022-09-25T15:08:12.264Z,46.23
2022-09-25T15:13:36.252Z,47.96
2022-09-25T15:19:02.567Z,50.27
2022-09-25T15:24:31.709Z,50.25
2022-09-25T15:29:57.040Z,52.26
2022-09-25T15:35:37.689Z,52.49
2022-09-25T15:41:02.432Z,52.89
2022-09-25T15:46:43.946Z,54.18
2022-09-25T15:52:14.028Z,55.95
2022-09-25T15:57:39.456Z,58.22
2022-09-25T16:03:39.926Z,59.83
2022-09-25T16:09:16.576Z,61.19
2022-09-25T16:14:46.711Z,60.00
2022-09-25T16:20:29.192Z,60.89
2022-09-25T16:25:59.180Z,61.28
2022-09-25T16:31:33.513Z,62.11
2022-09-25T16:36:58.546Z,64.54
2022-09-25T16:42:38.778Z,66.67
2022-09-25T16:47:57.048Z,69.20
2022-09-25T16:53:19.399Z,71.43
2022-09-25T16:58:42.976Z,72.73
2022-09-25T17:04:07.303Z,74.64
2022-09-25T17:09:31.693Z,76.13
2022-09-25T17:14:55.435Z,77.14
2022-09-25T17:20:18.812Z,77.26
2022-09-25T17:25:48.826Z,78.15
2022-09-25T17:31:11.371Z,79.07
2022-09-25T17:36:33.703Z,80.72
2022-09-25T17:41:57.314Z,80.45
2022-09-25T17:47:21.981Z,80.59
2022-09-25T17:52:44.415Z,80.25
2022-09-25T17:58:06.834Z,80.95
2022-09-25T18:03:31.462Z,82.50
2022-09-25T18:08:55.955Z,84.21
2022-09-25T18:14:19.011Z,86.84
2022-09-25T18:19:59.640Z,88.06
2022-09-25T18:25:23.475Z,88.34
2022-09-25T18:30:45.643Z,88.90
2022-09-25T18:36:08.397Z,89.29
2022-09-25T18:41:31.240Z,88.87
2022-09-25T18:46:54.890Z,89.07
2022-09-25T18:52:17.721Z,89.53
2022-09-25T18:57:40.780Z,90.12
2022-09-25T19:03:06.393Z,90.81
2022-09-25T19:08:30.386Z,91.56
2022-09-25T19:13:54.331Z,92.89
2022-09-25T19:19:16.589Z,93.48
2022-09-25T19:24:42.339Z,94.04
2022-09-25T19:30:04.675Z,95.15
2022-09-25T19:35:27.004Z,95.82
2022-09-25T19:40:50.798Z,95.08
2022-09-25T19:46:15.075Z,94.81
2022-09-25T19:51:39.410Z,94.89
2022-09-25T19:57:02.536Z,96.41
2022-09-25T20:02:25.773Z,96.37
2022-09-25T20:07:47.980Z,97.31
2022-09-25T20:13:10.618Z,98.38
2022-09-25T20:18:33.758Z,98.63
2022-09-25T20:23:58.413Z,99.08
2022-09-25T20:29:24.185Z,98.44
2022-09-25T20:34:47.552Z,99.14
2022-09-25T20:40:09.877Z,99.51
2022-09-25T20:45:32.174Z,99.92
2022-09-25T20:50:56.830Z,99.70
2022-09-25T20:56:24.508Z,99.44
2022-09-25T21:01:50.067Z,99.07
2022-09-25T21:07:16.709Z,99.24
2022-09-25T21:12:36.623Z,100.00
2022-09-25T21:18:00.257Z,100.00
2022-09-25T21:23:22.411Z,100.00
2022-09-25T21:28:45.696Z,100.00
2022-09-25T21:34:10.984Z,100.00
2022-09-25T21:39:33.137Z,100.00
2022-09-25T21:44:55.711Z,100.00
2022-09-25T21:50:18.512Z,100.00
2022-09-25T21:55:41.338Z,100.00
2022-09-25T22:01:10.585Z,100.00
2022-09-25T22:06:37.880Z,100.00
2022-09-25T22:12:01.682Z,100.00
2022-09-25T22:17:23.837Z,100.00
2022-09-25T22:22:46.432Z,100.00
2022-09-25T22:28:08.568Z,100.00
2022-09-25T22:33:30.714Z,100.00
2022-09-25T22:38:53.588Z,100.00
2022-09-25T22:44:15.764Z,100.00
2022-09-25T22:49:38.169Z,100.00
2022-09-25T22:55:00.323Z,100.00
2022-09-25T23:00:23.430Z,100.00
2022-09-25T23:05:47.278Z,100.00
2022-09-25T23:11:11.337Z,100.00
2022-09-25T23:16:34.153Z,100.00
2022-09-25T23:21:59.495Z,100.00
2022-09-25T23:27:21.683Z,100.00
2022-09-25T23:32:44.290Z,100.00
2022-09-25T23:38:09.006Z,99.34
2022-09-25T23:43:31.493Z,99.35
2022-09-25T23:48:54.582Z,98.53
2022-09-25T23:54:18.662Z,98.27
2022-09-25T23:59:40.881Z,98.63
